Cashiers, NC

9:42 PM EDT on May 22, 2015 (GMT -0400)
APRSWXNET | | Change Station
CLOSE
Current Station
Personal Weather Station
Location: Cashiers, NC
Elevation: 3900 ft
Nearby Weather Stations

Elev 3900 ft 35.08 °N, 83.08 °W | Updated 18 minutes ago

Clear
Clear
56 °F
Feels Like 56 °F
N
0
Wind Variable Wind from SW
Gusts 1.0 mph

Today
High -- | Low -- °F
--% Chance of Precip.
Yesterday
High -- | Low -- °F
Precip. -- in
6:24 AM 8:34 PM
Waxing Crescent, 25% visible
Pressure 30.29 in
Visibility 10.0 miles
Clouds
Dew Point 47 °F
Humidity 72%
Rainfall in
Snow Depth Not available.
UV Not available.
Pollen 7.80 out of 12
Air Quality Not available.
Flu Activity No Activity
METAR K1A5 230135Z AUTO 25004KT 10SM 13/08 A3029 RMK AO2 T01300083

More Conditions Fewer Conditions

Pressure 30.29 in
Visibility 10.0 miles
Clouds
Dew Point 47 °F
Humidity 72%
Rainfall in
Snow Depth Not available.
UV Not available.
Pollen 7.80 out of 12
Air Quality Not available.
Flu Activity No Activity
METAR K1A5 230135Z AUTO 25004KT 10SM 13/08 A3029 RMK AO2 T01300083

More Conditions Fewer Conditions

10-Day Weather Forecast

Almanac

Astronomy

May. 22, 2015 Rise Set
Actual Time
Civil Twilight
Nautical Twilight
Astronomical Twilight
Moon
Length of Visible Light
Length of Day
Tomorrow will be .
, % of the Moon is Illuminated

Today's Extremes

State Highs State Lows

Community

WunderPhotos

Upload Photos

1,823,360 photos uploaded!

WunderBlogs® & News

Nearby

Air Quality

  Air Quality AQ Index Pollutant
Not available.

Snow Depth

Station Depth Elevation

Earthquake Activity

City Distance Mag. Time & Date
Minimum magnitude displayed is 2.5.

Coastal Water Temperatures

Place Temperature

Stations

Nearby Weather Stations

Station Location Temp. Windchill Dew Point Humidity Wind Precip. Elev Updated Type